BER109 EFHK-EVRA
Flight info
| Callsign | BER109 |
|---|---|
| Flight time | 0h 46m |
| Altitude | 30000 |
| Route | KOIVU Y123 LARTI DCT LUTAL |
| Aircraft | B738/M-SDE2E3FGHIRWXY/LB1 |
Departure
| Time | 2026-05-05 14:40 |
|---|---|
| Airport | Helsinki Vantaa Airport (EFHK) |
Arrival
| Time | 2026-05-05 15:27 |
|---|---|
| Airport | Riga International Airport (EVRA) |
| Time | Latitude | Longitude | Altitude | Speed | Heading |
|---|---|---|---|---|---|
| 2026-05-05 14:13 | 60.31559 | 24.97331 | 198 ft | 0 kts | 243° |
| 2026-05-05 14:14 | 60.31558 | 24.97327 | 194 ft | 0 kts | 243° |
| 2026-05-05 14:28 | 60.31560 | 24.97335 | 199 ft | 3 kts | 243° |
| 2026-05-05 14:28 | 60.31571 | 24.97377 | 202 ft | 2 kts | 244° |
| 2026-05-05 14:28 | 60.31576 | 24.97422 | 203 ft | 4 kts | 286° |
| 2026-05-05 14:29 | 60.31562 | 24.97463 | 203 ft | 4 kts | 327° |
| 2026-05-05 14:29 | 60.31556 | 24.97470 | 198 ft | 0 kts | 333° |
| 2026-05-05 14:32 | 60.31573 | 24.97453 | 203 ft | 10 kts | 333° |
| 2026-05-05 14:32 | 60.31640 | 24.97384 | 187 ft | 11 kts | 333° |
| 2026-05-05 14:33 | 60.31705 | 24.97317 | 192 ft | 10 kts | 333° |
| 2026-05-05 14:33 | 60.31768 | 24.97252 | 189 ft | 10 kts | 334° |
| 2026-05-05 14:33 | 60.31830 | 24.97189 | 185 ft | 10 kts | 333° |
| 2026-05-05 14:33 | 60.31890 | 24.97126 | 194 ft | 10 kts | 333° |
| 2026-05-05 14:34 | 60.31961 | 24.97052 | 185 ft | 12 kts | 333° |
| 2026-05-05 14:34 | 60.32033 | 24.96975 | 187 ft | 12 kts | 331° |
| 2026-05-05 14:34 | 60.32128 | 24.96868 | 187 ft | 17 kts | 330° |
| 2026-05-05 14:34 | 60.32228 | 24.96754 | 192 ft | 16 kts | 328° |
| 2026-05-05 14:35 | 60.32324 | 24.96641 | 190 ft | 16 kts | 330° |
| 2026-05-05 14:35 | 60.32416 | 24.96535 | 191 ft | 15 kts | 330° |
| 2026-05-05 14:35 | 60.32520 | 24.96414 | 184 ft | 20 kts | 331° |
| 2026-05-05 14:35 | 60.32640 | 24.96275 | 187 ft | 20 kts | 330° |
| 2026-05-05 14:36 | 60.32755 | 24.96139 | 198 ft | 19 kts | 330° |
| 2026-05-05 14:36 | 60.32883 | 24.95990 | 191 ft | 24 kts | 330° |
| 2026-05-05 14:36 | 60.33022 | 24.95827 | 192 ft | 23 kts | 329° |
| 2026-05-05 14:36 | 60.33144 | 24.95636 | 185 ft | 22 kts | 317° |
| 2026-05-05 14:37 | 60.33204 | 24.95401 | 192 ft | 20 kts | 249° |
| 2026-05-05 14:37 | 60.33121 | 24.95179 | 192 ft | 20 kts | 245° |
| 2026-05-05 14:37 | 60.33111 | 24.94909 | 185 ft | 19 kts | 272° |
| 2026-05-05 14:37 | 60.33115 | 24.94727 | 187 ft | 0 kts | 272° |
| 2026-05-05 14:38 | 60.33115 | 24.94708 | 187 ft | 7 kts | 272° |
| 2026-05-05 14:38 | 60.33118 | 24.94588 | 188 ft | 8 kts | 272° |
| 2026-05-05 14:38 | 60.33119 | 24.94466 | 189 ft | 9 kts | 267° |
| 2026-05-05 14:39 | 60.33094 | 24.94350 | 193 ft | 9 kts | 233° |
| 2026-05-05 14:39 | 60.33072 | 24.94294 | 193 ft | 0 kts | 228° |
| 2026-05-05 14:39 | 60.33071 | 24.94293 | 193 ft | 1 kts | 228° |
| 2026-05-05 14:39 | 60.32943 | 24.94003 | 187 ft | 65 kts | 228° |
| 2026-05-05 14:40 | 60.32483 | 24.92972 | 188 ft | 130 kts | 228° |
| 2026-05-05 14:40 | 60.31792 | 24.91369 | 491 ft | 160 kts | 232° |
| 2026-05-05 14:40 | 60.31036 | 24.89807 | 1535 ft | 148 kts | 230° |
| 2026-05-05 14:40 | 60.30286 | 24.88254 | 2286 ft | 162 kts | 229° |
| 2026-05-05 14:41 | 60.29615 | 24.86211 | 2582 ft | 190 kts | 256° |
| 2026-05-05 14:41 | 60.29721 | 24.83441 | 2823 ft | 215 kts | 288° |
| 2026-05-05 14:41 | 60.30172 | 24.80537 | 3570 ft | 211 kts | 283° |
| 2026-05-05 14:41 | 60.30381 | 24.77408 | 3618 ft | 237 kts | 266° |
| 2026-05-05 14:42 | 60.29907 | 24.74239 | 3584 ft | 239 kts | 245° |
| 2026-05-05 14:42 | 60.29173 | 24.71214 | 3836 ft | 240 kts | 247° |
| 2026-05-05 14:42 | 60.28483 | 24.68117 | 4046 ft | 246 kts | 248° |
| 2026-05-05 14:42 | 60.27799 | 24.64917 | 4933 ft | 247 kts | 249° |
| 2026-05-05 14:43 | 60.27128 | 24.61720 | 5875 ft | 250 kts | 249° |
| 2026-05-05 14:43 | 60.26456 | 24.58473 | 6800 ft | 250 kts | 249° |
| 2026-05-05 14:43 | 60.25796 | 24.55268 | 7816 ft | 246 kts | 249° |
| 2026-05-05 14:43 | 60.25143 | 24.52096 | 8807 ft | 245 kts | 249° |
| 2026-05-05 14:44 | 60.24192 | 24.49238 | 9698 ft | 250 kts | 228° |
| 2026-05-05 14:44 | 60.22732 | 24.47195 | 10334 ft | 269 kts | 211° |
| 2026-05-05 14:44 | 60.20888 | 24.45780 | 10534 ft | 297 kts | 205° |
| 2026-05-05 14:44 | 60.18869 | 24.44490 | 10727 ft | 320 kts | 204° |
| 2026-05-05 14:45 | 60.16685 | 24.43081 | 10984 ft | 337 kts | 204° |
| 2026-05-05 14:45 | 60.14439 | 24.41594 | 11650 ft | 341 kts | 205° |
| 2026-05-05 14:45 | 60.12100 | 24.40586 | 12489 ft | 353 kts | 190° |
| 2026-05-05 14:45 | 60.09613 | 24.41033 | 13324 ft | 369 kts | 175° |
| 2026-05-05 14:46 | 60.07164 | 24.43011 | 13985 ft | 387 kts | 163° |
| 2026-05-05 14:46 | 60.04757 | 24.45497 | 14549 ft | 393 kts | 161° |
| 2026-05-05 14:46 | 60.02325 | 24.48087 | 15117 ft | 398 kts | 161° |
| 2026-05-05 14:46 | 59.99871 | 24.50693 | 15712 ft | 401 kts | 161° |
| 2026-05-05 14:47 | 59.97392 | 24.53292 | 16301 ft | 404 kts | 162° |
| 2026-05-05 14:47 | 59.94880 | 24.55892 | 16874 ft | 407 kts | 162° |
| 2026-05-05 14:47 | 59.92351 | 24.58488 | 17436 ft | 411 kts | 162° |
| 2026-05-05 14:47 | 59.89794 | 24.61099 | 17994 ft | 415 kts | 162° |
| 2026-05-05 14:48 | 59.87210 | 24.63720 | 18485 ft | 416 kts | 164° |
| 2026-05-05 14:48 | 59.84513 | 24.65397 | 18931 ft | 399 kts | 182° |
| 2026-05-05 14:48 | 59.81807 | 24.65368 | 19449 ft | 383 kts | 198° |
| 2026-05-05 14:48 | 59.79226 | 24.64239 | 19951 ft | 380 kts | 202° |
| 2026-05-05 14:49 | 59.76650 | 24.62950 | 20412 ft | 383 kts | 202° |
| 2026-05-05 14:49 | 59.74056 | 24.61658 | 20871 ft | 386 kts | 202° |
| 2026-05-05 14:49 | 59.71435 | 24.60399 | 21337 ft | 389 kts | 201° |
| 2026-05-05 14:49 | 59.68793 | 24.59165 | 21791 ft | 392 kts | 201° |
| 2026-05-05 14:50 | 59.66122 | 24.57942 | 22235 ft | 395 kts | 200° |
| 2026-05-05 14:50 | 59.63421 | 24.56812 | 22663 ft | 399 kts | 200° |
| 2026-05-05 14:50 | 59.60695 | 24.55736 | 23087 ft | 401 kts | 199° |
| 2026-05-05 14:50 | 59.57940 | 24.54670 | 23474 ft | 404 kts | 199° |
| 2026-05-05 14:51 | 59.55172 | 24.53602 | 23806 ft | 407 kts | 199° |
| 2026-05-05 14:51 | 59.52387 | 24.52524 | 24148 ft | 409 kts | 199° |
| 2026-05-05 14:51 | 59.49593 | 24.51438 | 24478 ft | 410 kts | 200° |
| 2026-05-05 14:51 | 59.46785 | 24.50342 | 24814 ft | 412 kts | 199° |
| 2026-05-05 14:52 | 59.43963 | 24.49239 | 25127 ft | 414 kts | 199° |
| 2026-05-05 14:52 | 59.41129 | 24.48130 | 25428 ft | 416 kts | 199° |
| 2026-05-05 14:52 | 59.38276 | 24.47014 | 25725 ft | 419 kts | 199° |
| 2026-05-05 14:52 | 59.35423 | 24.45900 | 26018 ft | 421 kts | 199° |
| 2026-05-05 14:53 | 59.32540 | 24.44776 | 26309 ft | 422 kts | 199° |
| 2026-05-05 14:53 | 59.29651 | 24.43653 | 26649 ft | 423 kts | 199° |
| 2026-05-05 14:53 | 59.26768 | 24.42536 | 27075 ft | 422 kts | 199° |
| 2026-05-05 14:53 | 59.23890 | 24.41425 | 27527 ft | 420 kts | 199° |
| 2026-05-05 14:54 | 59.21066 | 24.40335 | 27920 ft | 419 kts | 199° |
| 2026-05-05 14:54 | 59.18204 | 24.39229 | 28295 ft | 419 kts | 199° |
| 2026-05-05 14:54 | 59.15342 | 24.38125 | 28679 ft | 419 kts | 199° |
| 2026-05-05 14:54 | 59.12487 | 24.37025 | 29084 ft | 418 kts | 199° |
| 2026-05-05 14:55 | 59.09634 | 24.35928 | 29472 ft | 418 kts | 199° |
| 2026-05-05 14:55 | 59.06781 | 24.34833 | 29824 ft | 418 kts | 199° |
| 2026-05-05 14:55 | 59.01044 | 24.32631 | 29815 ft | 420 kts | 199° |
| 2026-05-05 14:56 | 58.95335 | 24.30458 | 29814 ft | 417 kts | 199° |
| 2026-05-05 14:56 | 58.89639 | 24.28293 | 29821 ft | 416 kts | 199° |
| 2026-05-05 14:57 | 58.83955 | 24.26138 | 29821 ft | 416 kts | 198° |
| 2026-05-05 14:57 | 58.78266 | 24.23987 | 29825 ft | 417 kts | 198° |
| 2026-05-05 14:58 | 58.72561 | 24.21838 | 29822 ft | 418 kts | 198° |
| 2026-05-05 14:58 | 58.66841 | 24.19691 | 29828 ft | 419 kts | 198° |
| 2026-05-05 14:59 | 58.61117 | 24.17551 | 29823 ft | 420 kts | 198° |
| 2026-05-05 14:59 | 58.55374 | 24.15411 | 29820 ft | 421 kts | 198° |
| 2026-05-05 15:00 | 58.50589 | 24.13633 | 29827 ft | 421 kts | 198° |
| 2026-05-05 15:00 | 58.43883 | 24.11147 | 29213 ft | 428 kts | 198° |
| 2026-05-05 15:01 | 58.40983 | 24.10078 | 28661 ft | 420 kts | 198° |
| 2026-05-05 15:01 | 58.38139 | 24.09037 | 28102 ft | 414 kts | 198° |
| 2026-05-05 15:01 | 58.35602 | 24.08110 | 27638 ft | 408 kts | 199° |
| 2026-05-05 15:01 | 58.32849 | 24.07104 | 27122 ft | 402 kts | 199° |
| 2026-05-05 15:02 | 58.30117 | 24.06103 | 26583 ft | 397 kts | 199° |
| 2026-05-05 15:02 | 58.27422 | 24.05116 | 26085 ft | 392 kts | 199° |
| 2026-05-05 15:02 | 58.24761 | 24.04141 | 25565 ft | 388 kts | 199° |
| 2026-05-05 15:02 | 58.22120 | 24.03175 | 25067 ft | 384 kts | 199° |
| 2026-05-05 15:03 | 58.19517 | 24.02223 | 24573 ft | 380 kts | 199° |
| 2026-05-05 15:03 | 58.16936 | 24.01282 | 24082 ft | 376 kts | 200° |
| 2026-05-05 15:03 | 58.14375 | 24.00349 | 23601 ft | 373 kts | 200° |
| 2026-05-05 15:03 | 58.11841 | 23.99427 | 23047 ft | 370 kts | 200° |
| 2026-05-05 15:04 | 58.09323 | 23.98513 | 22531 ft | 366 kts | 200° |
| 2026-05-05 15:04 | 58.06836 | 23.97612 | 22056 ft | 362 kts | 199° |
| 2026-05-05 15:04 | 58.04382 | 23.96724 | 21580 ft | 358 kts | 199° |
| 2026-05-05 15:04 | 58.01947 | 23.95844 | 21095 ft | 355 kts | 199° |
| 2026-05-05 15:05 | 57.97139 | 23.94106 | 20141 ft | 349 kts | 199° |
| 2026-05-05 15:05 | 57.94808 | 23.93269 | 19914 ft | 341 kts | 199° |
| 2026-05-05 15:05 | 57.92506 | 23.92448 | 19751 ft | 332 kts | 199° |
| 2026-05-05 15:06 | 57.90266 | 23.91663 | 19624 ft | 325 kts | 197° |
| 2026-05-05 15:06 | 57.87957 | 23.91401 | 19220 ft | 343 kts | 187° |
| 2026-05-05 15:06 | 57.85539 | 23.91640 | 18828 ft | 350 kts | 185° |
| 2026-05-05 15:06 | 57.83113 | 23.91934 | 18409 ft | 349 kts | 185° |
| 2026-05-05 15:07 | 57.80701 | 23.92177 | 17975 ft | 346 kts | 186° |
| 2026-05-05 15:07 | 57.78311 | 23.92382 | 17508 ft | 343 kts | 186° |
| 2026-05-05 15:07 | 57.75931 | 23.92572 | 17074 ft | 340 kts | 186° |
| 2026-05-05 15:07 | 57.73579 | 23.92754 | 16666 ft | 337 kts | 186° |
| 2026-05-05 15:08 | 57.71253 | 23.92933 | 16263 ft | 333 kts | 186° |
| 2026-05-05 15:08 | 57.68944 | 23.93110 | 15893 ft | 330 kts | 186° |
| 2026-05-05 15:08 | 57.66659 | 23.93285 | 15497 ft | 328 kts | 186° |
| 2026-05-05 15:08 | 57.64388 | 23.93460 | 15121 ft | 325 kts | 186° |
| 2026-05-05 15:09 | 57.62138 | 23.93633 | 14745 ft | 322 kts | 186° |
| 2026-05-05 15:09 | 57.59926 | 23.93480 | 14355 ft | 314 kts | 194° |
| 2026-05-05 15:09 | 57.57776 | 23.92907 | 13979 ft | 310 kts | 197° |
| 2026-05-05 15:09 | 57.55655 | 23.92224 | 13597 ft | 308 kts | 197° |
| 2026-05-05 15:10 | 57.53550 | 23.91534 | 13186 ft | 307 kts | 197° |
| 2026-05-05 15:10 | 57.51449 | 23.90861 | 12801 ft | 305 kts | 196° |
| 2026-05-05 15:10 | 57.49372 | 23.90215 | 12445 ft | 302 kts | 196° |
| 2026-05-05 15:10 | 57.47307 | 23.89588 | 12081 ft | 299 kts | 196° |
| 2026-05-05 15:11 | 57.45258 | 23.88976 | 11714 ft | 297 kts | 195° |
| 2026-05-05 15:11 | 57.43219 | 23.88373 | 11361 ft | 296 kts | 195° |
| 2026-05-05 15:11 | 57.41192 | 23.87778 | 10998 ft | 294 kts | 195° |
| 2026-05-05 15:11 | 57.39173 | 23.87187 | 10593 ft | 294 kts | 195° |
| 2026-05-05 15:12 | 57.37201 | 23.86616 | 10377 ft | 288 kts | 195° |
| 2026-05-05 15:12 | 57.35230 | 23.86049 | 10283 ft | 277 kts | 195° |
| 2026-05-05 15:12 | 57.33375 | 23.85516 | 10116 ft | 270 kts | 195° |
| 2026-05-05 15:12 | 57.31562 | 23.84996 | 10057 ft | 260 kts | 195° |
| 2026-05-05 15:13 | 57.29802 | 23.84489 | 9852 ft | 252 kts | 195° |
| 2026-05-05 15:13 | 57.28065 | 23.83984 | 9320 ft | 254 kts | 195° |
| 2026-05-05 15:13 | 57.26318 | 23.83475 | 8832 ft | 254 kts | 195° |
| 2026-05-05 15:13 | 57.24579 | 23.82972 | 8372 ft | 252 kts | 195° |
| 2026-05-05 15:14 | 57.22852 | 23.82474 | 7918 ft | 251 kts | 194° |
| 2026-05-05 15:14 | 57.21138 | 23.81981 | 7473 ft | 249 kts | 194° |
| 2026-05-05 15:14 | 57.19427 | 23.81489 | 7049 ft | 247 kts | 194° |
| 2026-05-05 15:14 | 57.17731 | 23.81003 | 6615 ft | 246 kts | 193° |
| 2026-05-05 15:15 | 57.16588 | 23.80674 | 6314 ft | 246 kts | 193° |
| 2026-05-05 15:15 | 57.14340 | 23.80029 | 5770 ft | 248 kts | 193° |
| 2026-05-05 15:15 | 57.12630 | 23.79540 | 5439 ft | 249 kts | 192° |
| 2026-05-05 15:15 | 57.10922 | 23.79052 | 5199 ft | 246 kts | 192° |
| 2026-05-05 15:16 | 57.09784 | 23.78730 | 5127 ft | 241 kts | 192° |
| 2026-05-05 15:16 | 57.08154 | 23.78267 | 5023 ft | 235 kts | 192° |
| 2026-05-05 15:16 | 57.06581 | 23.77820 | 5074 ft | 229 kts | 192° |
| 2026-05-05 15:16 | 57.05016 | 23.77422 | 5025 ft | 227 kts | 188° |
| 2026-05-05 15:17 | 57.03424 | 23.77345 | 4807 ft | 229 kts | 184° |
| 2026-05-05 15:17 | 57.01833 | 23.77357 | 4618 ft | 229 kts | 183° |
| 2026-05-05 15:17 | 57.00238 | 23.77371 | 4403 ft | 229 kts | 183° |
| 2026-05-05 15:17 | 56.98648 | 23.77375 | 4203 ft | 229 kts | 184° |
| 2026-05-05 15:18 | 56.97057 | 23.77367 | 4001 ft | 229 kts | 184° |
| 2026-05-05 15:18 | 56.95452 | 23.77357 | 3822 ft | 232 kts | 184° |
| 2026-05-05 15:18 | 56.93827 | 23.77333 | 3603 ft | 234 kts | 184° |
| 2026-05-05 15:18 | 56.92208 | 23.77310 | 3359 ft | 232 kts | 184° |
| 2026-05-05 15:19 | 56.90603 | 23.77288 | 3214 ft | 229 kts | 184° |
| 2026-05-05 15:19 | 56.89019 | 23.77271 | 3094 ft | 225 kts | 184° |
| 2026-05-05 15:19 | 56.87480 | 23.77266 | 3101 ft | 220 kts | 184° |
| 2026-05-05 15:19 | 56.85950 | 23.77262 | 3106 ft | 220 kts | 184° |
| 2026-05-05 15:20 | 56.84416 | 23.77252 | 3109 ft | 222 kts | 184° |
| 2026-05-05 15:20 | 56.82873 | 23.77246 | 3111 ft | 222 kts | 184° |
| 2026-05-05 15:20 | 56.81321 | 23.77103 | 3097 ft | 226 kts | 189° |
| 2026-05-05 15:20 | 56.79757 | 23.76828 | 3102 ft | 225 kts | 189° |
| 2026-05-05 15:21 | 56.78212 | 23.76575 | 3098 ft | 220 kts | 188° |
| 2026-05-05 15:21 | 56.76693 | 23.76310 | 3131 ft | 219 kts | 188° |
| 2026-05-05 15:21 | 56.75168 | 23.76099 | 3081 ft | 219 kts | 181° |
| 2026-05-05 15:21 | 56.73731 | 23.76942 | 3092 ft | 222 kts | 146° |
| 2026-05-05 15:22 | 56.72775 | 23.79208 | 3003 ft | 235 kts | 108° |
| 2026-05-05 15:22 | 56.72484 | 23.82161 | 2975 ft | 241 kts | 96° |
| 2026-05-05 15:22 | 56.72347 | 23.85244 | 2835 ft | 243 kts | 94° |
| 2026-05-05 15:22 | 56.72223 | 23.88211 | 2697 ft | 229 kts | 94° |
| 2026-05-05 15:23 | 56.72310 | 23.90997 | 2612 ft | 214 kts | 68° |
| 2026-05-05 15:23 | 56.73164 | 23.93088 | 2563 ft | 205 kts | 26° |
| 2026-05-05 15:23 | 56.74497 | 23.93815 | 2496 ft | 201 kts | 6° |
| 2026-05-05 15:23 | 56.75894 | 23.94313 | 2435 ft | 206 kts | 7° |
| 2026-05-05 15:24 | 56.77298 | 23.94684 | 2293 ft | 201 kts | 0° |
| 2026-05-05 15:24 | 56.78650 | 23.94934 | 2196 ft | 197 kts | 0° |
| 2026-05-05 15:24 | 56.80019 | 23.95110 | 2127 ft | 197 kts | 359° |
| 2026-05-05 15:24 | 56.81356 | 23.95313 | 2107 ft | 187 kts | 0° |
| 2026-05-05 15:25 | 56.82621 | 23.95516 | 2102 ft | 181 kts | 0° |
| 2026-05-05 15:25 | 56.83896 | 23.95709 | 1682 ft | 188 kts | 0° |
| 2026-05-05 15:25 | 56.85180 | 23.95893 | 1403 ft | 179 kts | 2° |
| 2026-05-05 15:25 | 56.86377 | 23.96102 | 1185 ft | 168 kts | 1° |
| 2026-05-05 15:26 | 56.87550 | 23.96276 | 700 ft | 170 kts | 6° |
| 2026-05-05 15:26 | 56.88668 | 23.96549 | 520 ft | 151 kts | 5° |
| 2026-05-05 15:26 | 56.89651 | 23.96663 | 320 ft | 131 kts | 2° |
| 2026-05-05 15:26 | 56.90490 | 23.96808 | 116 ft | 117 kts | 5° |
| 2026-05-05 15:27 | 56.91257 | 23.96943 | 38 ft | 100 kts | 4° |
| 2026-05-05 15:27 | 56.91728 | 23.97017 | 35 ft | 41 kts | 9° |
| 2026-05-05 15:27 | 56.91991 | 23.97060 | 35 ft | 39 kts | 2° |
| 2026-05-05 15:27 | 56.92263 | 23.97108 | 37 ft | 38 kts | 9° |
| 2026-05-05 15:28 | 56.92490 | 23.97289 | 33 ft | 31 kts | 35° |
| 2026-05-05 15:28 | 56.92597 | 23.97426 | 33 ft | 9 kts | 39° |
| 2026-05-05 15:28 | 56.92609 | 23.97512 | 34 ft | 2 kts | 100° |
| 2026-05-05 15:28 | 56.92600 | 23.97525 | 34 ft | 2 kts | 152° |
| 2026-05-05 15:29 | 56.92566 | 23.97542 | 34 ft | 11 kts | 172° |
| 2026-05-05 15:29 | 56.92483 | 23.97531 | 34 ft | 12 kts | 186° |
| 2026-05-05 15:29 | 56.92402 | 23.97515 | 32 ft | 10 kts | 186° |
| 2026-05-05 15:29 | 56.92359 | 23.97544 | 34 ft | 7 kts | 121° |
| 2026-05-05 15:30 | 56.92351 | 23.97629 | 34 ft | 7 kts | 97° |
| 2026-05-05 15:30 | 56.92348 | 23.97714 | 34 ft | 6 kts | 91° |
| 2026-05-05 15:30 | 56.92342 | 23.97753 | 34 ft | 3 kts | 131° |
| 2026-05-05 15:30 | 56.92322 | 23.97758 | 34 ft | 3 kts | 187° |
| 2026-05-05 15:31 | 56.92303 | 23.97754 | 34 ft | 0 kts | 186° |
| 2026-05-05 15:31 | 56.92297 | 23.97753 | 34 ft | 2 kts | 186° |
| 2026-05-05 15:31 | 56.92291 | 23.97752 | 34 ft | 0 kts | 186° |